Time;durP1;ratioP1;P1;durP2;ratioP2;P2;SDS_P1;SDS_P2;PMS_P1;PMS_P2;Temp;Humidity;BMP_temperature;BMP_pressure;BME280_temperature;BME280_humidity;BME280_pressure;Samples;Min_cycle;Max_cycle;Signal;HPM_P1;HPM_P2
2021/09/29 00:01:40;;;;;;;5.35;4.47;;;;;;;-144.51;100.00;69251.94;5103102;28;20039;-66
2021/09/29 00:04:25;;;;;;;10.55;4.38;;;;;;;-144.51;100.00;69251.94;5122042;28;20043;-68
2021/09/29 00:07:10;;;;;;;6.55;4.72;;;;;;;-144.51;100.00;69251.94;5118095;28;20043;-67
2021/09/29 00:09:55;;;;;;;8.27;4.88;;;;;;;-144.51;100.00;69251.94;5116190;28;20039;-68
2021/09/29 00:12:41;;;;;;;6.90;4.00;;;;;;;-144.51;100.00;69251.94;5120144;28;20051;-68
2021/09/29 00:15:26;;;;;;;6.43;4.00;;;;;;;-144.51;100.00;69251.94;5122494;28;20044;-68
2021/09/29 00:18:11;;;;;;;4.78;3.88;;;;;;;-144.51;100.00;69251.94;5119682;28;20024;-68
2021/09/29 00:20:56;;;;;;;6.43;3.97;;;;;;;-144.51;100.00;69251.94;5114452;28;20059;-68
2021/09/29 00:23:40;;;;;;;8.63;4.03;;;;;;;-144.51;100.00;69251.94;5121973;28;20510;-68
2021/09/29 00:26:25;;;;;;;12.57;5.20;;;;;;;-144.51;100.00;69251.94;5115830;28;20044;-68
2021/09/29 00:29:10;;;;;;;6.57;4.13;;;;;;;-144.51;100.00;69251.94;5096681;28;20040;-68
2021/09/29 00:31:55;;;;;;;7.25;3.75;;;;;;;-144.51;100.00;69251.94;5101861;28;20048;-68
2021/09/29 00:34:40;;;;;;;6.55;3.78;;;;;;;-144.51;100.00;69251.94;5101764;28;20040;-69
2021/09/29 00:37:25;;;;;;;7.20;3.97;;;;;;;-144.51;100.00;69251.94;5118064;28;20475;-69
2021/09/29 00:40:11;;;;;;;6.72;4.40;;;;;;;-144.51;100.00;69251.94;5121658;28;20487;-66
2021/09/29 00:42:55;;;;;;;8.40;4.30;;;;;;;-144.51;100.00;69251.94;5113365;28;20039;-66
2021/09/29 00:45:40;;;;;;;7.43;4.03;;;;;;;-144.51;100.00;69251.94;5119270;28;20048;-68
2021/09/29 00:48:25;;;;;;;4.88;4.05;;;;;;;-144.51;100.00;69251.94;5116285;28;20483;-68
2021/09/29 00:51:10;;;;;;;6.15;4.35;;;;;;;-144.51;100.00;69251.94;5115003;28;20035;-68
2021/09/29 00:53:55;;;;;;;8.35;4.53;;;;;;;-144.51;100.00;69251.94;5114342;28;20040;-69
2021/09/29 00:56:40;;;;;;;6.25;4.13;;;;;;;-144.51;100.00;69251.94;5118992;28;20437;-69
2021/09/29 00:59:25;;;;;;;5.97;3.88;;;;;;;-144.51;100.00;69251.94;5114607;28;20040;-69
2021/09/29 01:02:10;;;;;;;5.28;4.00;;;;;;;-144.51;100.00;69251.94;5116056;28;20031;-69
2021/09/29 01:04:55;;;;;;;6.07;4.47;;;;;;;-144.51;100.00;69251.94;5112537;28;20044;-68
2021/09/29 01:07:52;;;;;;;7.47;4.00;;;;;;;-144.51;100.00;69251.94;5120276;28;20044;-67
2021/09/29 01:10:47;;;;;;;5.60;3.50;;;;;;;-144.51;100.00;69251.94;5115387;28;20065;-67
2021/09/29 01:13:56;;;;;;;6.72;4.18;;;;;;;-144.51;100.00;69251.94;5118928;28;20495;-67
2021/09/29 01:16:42;;;;;;;8.20;3.92;;;;;;;-144.51;100.00;69251.94;5119663;28;20031;-66
2021/09/29 01:19:42;;;;;;;7.85;4.22;;;;;;;-144.51;100.00;69251.94;5113582;28;20047;-66
2021/09/29 01:22:50;;;;;;;6.47;4.00;;;;;;;-144.51;100.00;69251.94;5120178;28;20039;-67
2021/09/29 01:25:57;;;;;;;12.02;4.78;;;;;;;-144.51;100.00;69251.94;5115349;28;20040;-67
2021/09/29 01:28:49;;;;;;;9.00;4.75;;;;;;;-144.51;100.00;69251.94;5112746;28;20043;-68
2021/09/29 01:31:35;;;;;;;6.00;4.60;;;;;;;-144.51;100.00;69251.94;5107004;28;20035;-67
2021/09/29 01:34:20;;;;;;;14.27;4.43;;;;;;;-144.51;100.00;69251.94;5119130;28;20039;-66
2021/09/29 01:37:09;;;;;;;11.98;4.70;;;;;;;-144.51;100.00;69251.94;5117135;28;20035;-67
2021/09/29 01:39:54;;;;;;;10.02;4.47;;;;;;;-144.51;100.00;69251.94;5112696;28;20039;-67
2021/09/29 01:42:40;;;;;;;6.68;4.28;;;;;;;-144.51;100.00;69251.94;5120531;28;20051;-67
2021/09/29 01:45:25;;;;;;;7.35;4.22;;;;;;;-144.51;100.00;69251.94;5116131;28;20040;-67
2021/09/29 01:48:10;;;;;;;4.97;3.72;;;;;;;-144.51;100.00;69251.94;5114767;28;20039;-67
2021/09/29 01:50:59;;;;;;;4.97;3.42;;;;;;;-144.51;100.00;69251.94;5120725;28;20043;-67
2021/09/29 01:53:46;;;;;;;6.80;3.65;;;;;;;-144.51;100.00;69251.94;5106662;28;20035;-67
2021/09/29 01:56:32;;;;;;;6.82;3.80;;;;;;;-144.51;100.00;69251.94;5114920;28;20394;-67
2021/09/29 01:59:17;;;;;;;8.80;3.67;;;;;;;-144.51;100.00;69251.94;5114808;28;20035;-67
2021/09/29 02:02:02;;;;;;;;;;;;;;;-144.51;100.00;69251.94;5120826;28;20043;-67
2021/09/29 02:04:48;;;;;;;10.25;3.10;;;;;;;-144.51;100.00;69251.94;5120759;28;19912;-68
2021/09/29 02:07:34;;;;;;;14.10;3.80;;;;;;;-144.51;100.00;69251.94;5114961;28;20048;-69
2021/09/29 02:10:19;;;;;;;7.25;3.95;;;;;;;-144.51;100.00;69251.94;5113062;28;20032;-69
2021/09/29 02:13:04;;;;;;;11.38;4.05;;;;;;;-144.51;100.00;69251.94;5112828;28;20430;-70
2021/09/29 02:15:48;;;;;;;7.65;3.55;;;;;;;-144.51;100.00;69251.94;5105585;28;20403;-69
2021/09/29 02:18:34;;;;;;;7.85;3.15;;;;;;;-144.51;100.00;69251.94;5113371;28;20035;-64
2021/09/29 02:21:19;;;;;;;11.07;3.83;;;;;;;-144.51;100.00;69251.94;5120111;28;20079;-62
2021/09/29 02:24:04;;;;;;;92.32;18.42;;;;;;;-144.51;100.00;69251.94;5114015;28;20039;-65
2021/09/29 02:26:49;;;;;;;168.98;35.58;;;;;;;-144.51;100.00;69251.94;5104979;27;20430;-65
2021/09/29 02:29:34;;;;;;;80.63;13.63;;;;;;;-144.51;100.00;69251.94;5105254;28;20031;-65
2021/09/29 02:32:19;;;;;;;;;;;;;;;-144.51;100.00;69251.94;5118091;28;20043;-65
2021/09/29 02:35:08;;;;;;;27.08;8.43;;;;;;;-144.51;100.00;69251.94;5115235;28;19911;-65
2021/09/29 02:37:53;;;;;;;25.88;6.72;;;;;;;-144.51;100.00;69251.94;5109481;28;20032;-65
2021/09/29 02:40:38;;;;;;;15.77;5.53;;;;;;;-144.51;100.00;69251.94;5119401;28;20039;-67
2021/09/29 02:43:23;;;;;;;;;;;;;;;-144.51;100.00;69251.94;5114883;28;20031;-65
2021/09/29 02:46:08;;;;;;;9.57;4.28;;;;;;;-144.51;100.00;69251.94;5119418;28;19919;-67
2021/09/29 02:48:53;;;;;;;9.02;3.90;;;;;;;-144.51;100.00;69251.94;5113242;28;20036;-65
2021/09/29 02:51:38;;;;;;;8.57;3.58;;;;;;;-144.51;100.00;69251.94;5114163;28;20035;-67
2021/09/29 02:54:23;;;;;;;6.22;3.40;;;;;;;-144.51;100.00;69251.94;5113253;28;20490;-65
2021/09/29 02:57:07;;;;;;;6.63;3.53;;;;;;;-144.51;100.00;69251.94;5111944;28;20039;-65
2021/09/29 02:59:53;;;;;;;11.00;3.92;;;;;;;-144.51;100.00;69251.94;5116697;28;20434;-65
2021/09/29 03:02:38;;;;;;;3.60;2.80;;;;;;;-144.51;100.00;69251.94;5112425;28;20632;-66
2021/09/29 03:05:22;;;;;;;4.38;3.30;;;;;;;-144.51;100.00;69251.94;5112658;28;20036;-65
2021/09/29 03:08:07;;;;;;;4.78;3.17;;;;;;;-144.51;100.00;69251.94;5116408;28;20044;-65
2021/09/29 03:10:52;;;;;;;5.88;3.25;;;;;;;-144.51;100.00;69251.94;5109667;28;20039;-64
2021/09/29 03:13:37;;;;;;;;;;;;;;;-144.51;100.00;69251.94;5105560;28;20035;-65
2021/09/29 03:16:22;;;;;;;4.25;3.03;;;;;;;-144.51;100.00;69251.94;5119287;28;19911;-65
2021/09/29 03:19:06;;;;;;;5.07;3.20;;;;;;;-144.51;100.00;69251.94;5113139;28;20031;-65
2021/09/29 03:21:51;;;;;;;;;;;;;;;-144.51;100.00;69251.94;5113046;28;20490;-65
2021/09/29 03:24:36;;;;;;;8.63;4.15;;;;;;;-144.51;100.00;69251.94;5114977;28;20375;-65
2021/09/29 03:27:20;;;;;;;;;;;;;;;-144.51;100.00;69251.94;5119504;28;20036;-64
2021/09/29 03:30:05;;;;;;;10.10;3.17;;;;;;;-144.51;100.00;69251.94;5107043;28;19911;-65
2021/09/29 03:32:50;;;;;;;6.10;3.17;;;;;;;-144.51;100.00;69251.94;5116097;28;20032;-65
2021/09/29 03:35:36;;;;;;;9.05;3.08;;;;;;;-144.51;100.00;69251.94;5115656;28;20047;-65
2021/09/29 03:38:21;;;;;;;5.15;3.15;;;;;;;-144.51;100.00;69251.94;5114993;28;20035;-65
2021/09/29 03:45:29;;;;;;;13.88;4.65;;;;;;;-144.51;100.00;69251.94;5021584;28;20037;-66
2021/09/29 03:48:14;;;;;;;7.55;3.38;;;;;;;-144.51;100.00;69251.94;5096692;28;20051;-66
2021/09/29 03:50:59;;;;;;;4.85;3.08;;;;;;;-144.51;100.00;69251.94;5120394;28;20043;-66
2021/09/29 03:53:44;;;;;;;8.18;3.20;;;;;;;-144.51;100.00;69251.94;5119259;28;20044;-66
2021/09/29 03:56:29;;;;;;;4.93;3.50;;;;;;;-144.51;100.00;69251.94;5113384;27;20483;-66
2021/09/29 03:59:13;;;;;;;5.35;3.60;;;;;;;-144.51;100.00;69251.94;5111889;28;20040;-66
2021/09/29 04:01:58;;;;;;;8.68;3.38;;;;;;;-144.51;100.00;69251.94;5115041;28;20035;-66
2021/09/29 04:04:44;;;;;;;4.50;3.05;;;;;;;-144.51;100.00;69251.94;5116622;28;20052;-66
2021/09/29 04:07:29;;;;;;;4.28;3.05;;;;;;;-144.51;100.00;69251.94;5115399;28;20027;-66
2021/09/29 04:10:14;;;;;;;5.78;3.38;;;;;;;-144.51;100.00;69251.94;5114410;28;20040;-66
2021/09/29 04:12:58;;;;;;;;;;;;;;;-144.51;100.00;69251.94;5121971;28;20036;-66
2021/09/29 04:15:43;;;;;;;5.13;3.05;;;;;;;-144.51;100.00;69251.94;5114855;28;19911;-66
2021/09/29 04:18:28;;;;;;;;;;;;;;;-144.51;100.00;69251.94;5118418;28;20044;-66
2021/09/29 04:21:13;;;;;;;4.13;3.05;;;;;;;-144.51;100.00;69251.94;5118078;28;20391;-66
2021/09/29 04:23:58;;;;;;;9.55;3.03;;;;;;;-144.51;100.00;69251.94;5111403;28;20035;-66
2021/09/29 04:26:43;;;;;;;6.10;3.75;;;;;;;-144.51;100.00;69251.94;5122067;28;20047;-67
2021/09/29 04:29:28;;;;;;;10.18;3.35;;;;;;;-144.51;100.00;69251.94;5112969;28;20039;-66
2021/09/29 04:32:13;;;;;;;;;;;;;;;-144.51;100.00;69251.94;5110369;28;20039;-66
2021/09/29 04:34:58;;;;;;;5.68;3.00;;;;;;;-144.51;100.00;69251.94;5117454;28;19919;-66
2021/09/29 04:37:42;;;;;;;7.90;2.83;;;;;;;-144.51;100.00;69251.94;5113821;28;20027;-66
2021/09/29 04:40:27;;;;;;;3.47;2.65;;;;;;;-144.51;100.00;69251.94;5115582;28;20423;-66
2021/09/29 04:43:13;;;;;;;5.53;2.80;;;;;;;-144.51;100.00;69251.94;5120129;28;20035;-66
2021/09/29 04:45:58;;;;;;;6.18;2.83;;;;;;;-144.51;100.00;69251.94;5116295;28;20035;-66
2021/09/29 04:48:43;;;;;;;4.80;3.05;;;;;;;-144.51;100.00;69251.94;5113777;28;20040;-66
2021/09/29 04:51:28;;;;;;;4.88;2.80;;;;;;;-144.51;100.00;69251.94;5118729;28;20387;-66
2021/09/29 04:54:13;;;;;;;5.72;2.65;;;;;;;-144.51;100.00;69251.94;5115540;28;20039;-66
2021/09/29 04:56:58;;;;;;;8.07;3.85;;;;;;;-144.51;100.00;69251.94;5114110;28;20036;-66
2021/09/29 04:59:43;;;;;;;5.22;2.72;;;;;;;-144.51;100.00;69251.94;5113519;28;20043;-67
2021/09/29 05:02:29;;;;;;;;;;;;;;;-144.51;100.00;69251.94;5115406;28;20043;-66
2021/09/29 05:05:14;;;;;;;;;;;;;;;-144.51;100.00;69251.94;5107436;28;19912;-66
2021/09/29 05:08:01;;;;;;;7.60;3.30;;;;;;;-144.51;100.00;69251.94;5119325;28;19916;-67
2021/09/29 05:10:54;;;;;;;8.32;3.25;;;;;;;-144.51;100.00;69251.94;5110954;28;20044;-68
2021/09/29 05:13:39;;;;;;;20.40;3.97;;;;;;;-144.51;100.00;69251.94;5114912;28;20027;-68
2021/09/29 05:16:24;;;;;;;17.77;4.63;;;;;;;-144.51;100.00;69251.94;5117849;28;20241;-68
2021/09/29 05:19:09;;;;;;;15.57;3.83;;;;;;;-144.51;100.00;69251.94;5113418;28;20410;-68
2021/09/29 05:21:54;;;;;;;18.52;4.80;;;;;;;-144.51;100.00;69251.94;5120978;28;20047;-65
2021/09/29 05:24:39;;;;;;;12.10;3.28;;;;;;;-144.51;100.00;69251.94;5115282;28;20499;-65
2021/09/29 05:27:24;;;;;;;8.10;3.35;;;;;;;-144.51;100.00;69251.94;5113481;28;20031;-65
2021/09/29 05:30:09;;;;;;;6.38;3.80;;;;;;;-144.51;100.00;69251.94;5115579;28;20043;-65
2021/09/29 05:32:54;;;;;;;20.35;5.80;;;;;;;-144.51;100.00;69251.94;5120834;28;20044;-65
2021/09/29 05:35:39;;;;;;;22.02;5.47;;;;;;;-144.51;100.00;69251.94;5120705;28;20490;-65
2021/09/29 05:38:24;;;;;;;;;;;;;;;-144.51;100.00;69251.94;5115893;28;20039;-65
2021/09/29 05:41:08;;;;;;;13.45;4.53;;;;;;;-144.51;100.00;69251.94;5120557;28;19919;-65
2021/09/29 05:43:53;;;;;;;11.13;4.78;;;;;;;-144.51;100.00;69251.94;5120230;28;20043;-65
2021/09/29 05:46:38;;;;;;;10.95;5.90;;;;;;;-144.51;100.00;69251.94;5115491;28;20043;-65
2021/09/29 05:49:23;;;;;;;8.70;4.38;;;;;;;-144.51;100.00;69251.94;5100955;28;20036;-65
2021/09/29 05:52:08;;;;;;;13.45;4.13;;;;;;;-144.51;100.00;69251.94;5101453;28;20039;-65
2021/09/29 05:54:53;;;;;;;9.68;4.50;;;;;;;-144.51;100.00;69251.94;5120542;28;20043;-65
2021/09/29 05:57:39;;;;;;;8.38;5.20;;;;;;;-144.51;100.00;69251.94;5118470;28;20035;-65
2021/09/29 06:00:23;;;;;;;10.18;5.40;;;;;;;-144.51;100.00;69251.94;5104827;28;20411;-64
2021/09/29 06:03:08;;;;;;;;;;;;;;;-144.51;100.00;69251.94;5113988;28;20039;-65
2021/09/29 06:05:52;;;;;;;13.02;4.28;;;;;;;-144.51;100.00;69251.94;5120069;28;20287;-65
2021/09/29 06:08:37;;;;;;;;;;;;;;;-144.51;100.00;69251.94;5116870;28;20032;-65
2021/09/29 06:11:22;;;;;;;9.85;3.70;;;;;;;-144.51;100.00;69251.94;5114425;28;20298;-65
2021/09/29 06:14:07;;;;;;;7.50;3.60;;;;;;;-144.51;100.00;69251.94;5119272;28;20039;-65
2021/09/29 06:16:59;;;;;;;8.48;3.80;;;;;;;-144.51;100.00;69251.94;5112388;28;20036;-65
2021/09/29 06:19:44;;;;;;;8.63;3.47;;;;;;;-144.51;100.00;69251.94;5108159;28;20035;-65
2021/09/29 06:22:29;;;;;;;17.08;3.55;;;;;;;-144.51;100.00;69251.94;5117568;28;20315;-65
2021/09/29 06:25:14;;;;;;;;;;;;;;;-144.51;100.00;69251.94;5113779;28;20039;-63
2021/09/29 06:27:58;;;;;;;17.23;4.50;;;;;;;-144.51;100.00;69251.94;5118014;28;20387;-65
2021/09/29 06:30:43;;;;;;;;;;;;;;;-144.51;100.00;69251.94;5119149;28;20039;-63
2021/09/29 06:33:27;;;;;;;14.32;4.30;;;;;;;-144.51;100.00;69251.94;5105196;28;19911;-64
2021/09/29 06:36:12;;;;;;;36.78;5.25;;;;;;;-144.51;100.00;69251.94;5099510;28;20040;-65
2021/09/29 06:38:57;;;;;;;28.15;5.85;;;;;;;-144.51;100.00;69251.94;5113608;28;20039;-63
2021/09/29 06:41:42;;;;;;;27.88;5.45;;;;;;;-144.51;100.00;69251.94;5116674;28;20039;-63
2021/09/29 06:44:31;;;;;;;20.52;3.95;;;;;;;-144.51;100.00;69251.94;5118735;28;20043;-64
2021/09/29 06:47:15;;;;;;;13.85;4.15;;;;;;;-144.51;100.00;69251.94;5118000;28;20035;-64
2021/09/29 06:50:01;;;;;;;11.55;3.53;;;;;;;-144.51;100.00;69251.94;5102252;28;20415;-63
2021/09/29 06:52:46;;;;;;;14.15;4.32;;;;;;;-144.51;100.00;69251.94;5114344;28;20044;-64
2021/09/29 06:55:31;;;;;;;9.93;2.95;;;;;;;-144.51;100.00;69251.94;5107233;28;20039;-63
2021/09/29 06:58:17;;;;;;;5.43;3.58;;;;;;;-144.51;100.00;69251.94;5116690;28;20036;-66
2021/09/29 07:01:02;;;;;;;15.80;3.72;;;;;;;-144.51;100.00;69251.94;5116471;28;20398;-64
2021/09/29 07:03:48;;;;;;;13.25;3.03;;;;;;;-144.51;100.00;69251.94;5111587;28;20482;-64
2021/09/29 07:06:33;;;;;;;9.65;3.47;;;;;;;-144.51;100.00;69251.94;5107705;28;20043;-64
2021/09/29 07:09:18;;;;;;;9.40;3.10;;;;;;;-144.51;100.00;69251.94;5109185;28;20040;-63
2021/09/29 07:12:04;;;;;;;8.77;3.72;;;;;;;-144.51;100.00;69251.94;5119536;28;20047;-64
2021/09/29 07:14:49;;;;;;;14.73;2.97;;;;;;;-144.51;100.00;69251.94;5113848;28;20031;-64
2021/09/29 07:17:34;;;;;;;19.48;4.10;;;;;;;-144.51;100.00;69251.94;5115145;28;20048;-63
2021/09/29 07:20:19;;;;;;;23.88;4.35;;;;;;;-144.51;100.00;69251.94;5123506;28;20635;-64
2021/09/29 07:23:06;;;;;;;28.45;3.70;;;;;;;-144.51;100.00;69251.94;5110977;28;20051;-64
2021/09/29 07:25:51;;;;;;;15.82;3.92;;;;;;;-144.51;100.00;69251.94;5118950;28;20040;-63
2021/09/29 07:28:36;;;;;;;16.75;4.30;;;;;;;-144.51;100.00;69251.94;5119660;28;20044;-64
2021/09/29 07:31:21;;;;;;;15.82;3.83;;;;;;;-144.51;100.00;69251.94;5122730;28;20039;-64
2021/09/29 07:34:07;;;;;;;9.77;2.70;;;;;;;-144.51;100.00;69251.94;5121102;28;20047;-64
2021/09/29 07:36:52;;;;;;;25.63;7.18;;;;;;;-144.51;100.00;69251.94;5116644;28;20035;-64
2021/09/29 07:39:37;;;;;;;19.20;6.13;;;;;;;-144.51;100.00;69251.94;5113992;28;20036;-64
2021/09/29 07:42:21;;;;;;;11.90;5.57;;;;;;;-144.51;100.00;69251.94;5113631;28;20031;-64
2021/09/29 07:45:08;;;;;;;17.80;5.47;;;;;;;-144.51;100.00;69251.94;5122206;28;20040;-64
2021/09/29 07:47:53;;;;;;;12.50;5.20;;;;;;;-144.51;100.00;69251.94;5121249;28;20036;-64
2021/09/29 07:50:38;;;;;;;14.30;4.40;;;;;;;-144.51;100.00;69251.94;5119558;28;20040;-64
2021/09/29 07:53:26;;;;;;;12.02;4.50;;;;;;;-144.51;100.00;69251.94;5119065;28;20391;-63
2021/09/29 07:56:11;;;;;;;11.25;4.40;;;;;;;-144.51;100.00;69251.94;5122668;28;20403;-64
2021/09/29 07:58:55;;;;;;;13.38;4.10;;;;;;;-144.51;100.00;69251.94;5113201;28;20407;-63
2021/09/29 08:01:40;;;;;;;14.32;4.65;;;;;;;-144.51;100.00;69251.94;5119098;28;20047;-64
2021/09/29 08:04:25;;;;;;;14.35;3.83;;;;;;;-144.51;100.00;69251.94;5116430;28;20035;-63
2021/09/29 08:07:10;;;;;;;11.75;3.72;;;;;;;-144.51;100.00;69251.94;5121182;28;20052;-64
2021/09/29 08:09:55;;;;;;;10.13;3.83;;;;;;;-144.51;100.00;69251.94;5105323;28;20039;-63
2021/09/29 08:12:40;;;;;;;10.98;4.55;;;;;;;-144.51;100.00;69251.94;5122400;28;20047;-64
2021/09/29 08:15:25;;;;;;;9.60;3.95;;;;;;;-144.51;100.00;69251.94;5112309;28;20039;-64
2021/09/29 08:18:10;;;;;;;9.82;3.97;;;;;;;-144.51;100.00;69251.94;5119183;28;20040;-64
2021/09/29 08:20:57;;;;;;;8.07;3.55;;;;;;;-144.51;100.00;69251.94;5115246;28;20032;-64
2021/09/29 08:23:46;;;;;;;17.83;3.67;;;;;;;-144.51;100.00;69251.94;5116253;28;20051;-63
2021/09/29 08:29:26;;;;;;;8.80;4.28;;;;;;;-144.51;100.00;69251.94;5116588;28;20039;-63
2021/09/29 08:32:27;;;;;;;11.18;3.47;;;;;;;-144.51;100.00;69251.94;5120293;28;20040;-63
2021/09/29 08:38:13;;;;;;;10.32;3.83;;;;;;;-144.51;100.00;69251.94;5114953;28;20028;-64
2021/09/29 08:41:24;;;;;;;14.63;3.80;;;;;;;-144.51;100.00;69251.94;5114935;28;20047;-63
2021/09/29 08:44:18;;;;;;;13.98;4.35;;;;;;;-144.51;100.00;69251.94;5115686;28;20031;-65
2021/09/29 08:47:19;;;;;;;5.90;3.85;;;;;;;-144.51;100.00;69251.94;5115358;28;20039;-65
2021/09/29 09:17:35;;;;;;;9.00;6.68;;;;;;;-144.51;100.00;69251.94;5120260;28;20039;-64
2021/09/29 09:20:25;;;;;;;13.13;9.60;;;;;;;-144.51;100.00;69251.94;5110592;28;20040;-63
2021/09/29 09:23:10;;;;;;;22.08;11.00;;;;;;;-144.51;100.00;69251.94;5121037;28;20039;-64
2021/09/29 09:25:55;;;;;;;14.52;8.77;;;;;;;-144.51;100.00;69251.94;5121329;28;20040;-63
2021/09/29 09:28:40;;;;;;;12.80;7.43;;;;;;;-144.51;100.00;69251.94;5117432;28;20051;-62
2021/09/29 09:31:25;;;;;;;9.68;7.60;;;;;;;-144.51;100.00;69251.94;5121273;28;20039;-64
2021/09/29 09:34:10;;;;;;;9.90;7.47;;;;;;;-144.51;100.00;69251.94;5120895;28;20043;-63
2021/09/29 09:36:56;;;;;;;11.77;6.05;;;;;;;-144.51;100.00;69251.94;5121024;28;20035;-63
2021/09/29 09:39:41;;;;;;;10.63;6.72;;;;;;;-144.51;100.00;69251.94;5114593;28;20431;-63
2021/09/29 09:42:26;;;;;;;11.82;6.47;;;;;;;-144.51;100.00;69251.94;5120811;28;20442;-63
2021/09/29 09:45:12;;;;;;;13.27;6.13;;;;;;;-144.51;100.00;69251.94;5120773;28;20052;-63
2021/09/29 09:47:57;;;;;;;10.50;6.45;;;;;;;-144.51;100.00;69251.94;5118741;28;20039;-63
2021/09/29 09:50:42;;;;;;;8.98;6.80;;;;;;;-144.51;100.00;69251.94;5121111;28;20499;-63
2021/09/29 09:53:27;;;;;;;10.43;6.82;;;;;;;-144.51;100.00;69251.94;5120576;28;20040;-62
2021/09/29 09:56:17;;;;;;;10.13;6.65;;;;;;;-144.51;100.00;69251.94;5121055;28;20039;-63
2021/09/29 09:59:07;;;;;;;9.57;5.68;;;;;;;-144.51;100.00;69251.94;5115645;28;20031;-62
2021/09/29 10:01:51;;;;;;;20.63;5.78;;;;;;;-144.51;100.00;69251.94;5119966;28;20035;-64
2021/09/29 10:04:36;;;;;;;16.17;5.40;;;;;;;-144.51;100.00;69251.94;5116789;28;20031;-64
2021/09/29 10:07:21;;;;;;;17.02;6.50;;;;;;;-144.51;100.00;69251.94;5115307;28;20494;-64
2021/09/29 10:10:17;;;;;;;17.92;5.10;;;;;;;-144.51;100.00;69251.94;5114331;28;20051;-64
2021/09/29 10:23:13;;;;;;;18.65;4.13;;;;;;;-144.51;100.00;69251.94;5110843;28;20039;-64
2021/09/29 10:29:08;;;;;;;6.53;3.47;;;;;;;-144.51;100.00;69251.94;5111450;28;19920;-64
2021/09/29 10:32:10;;;;;;;15.48;4.00;;;;;;;-144.51;100.00;69251.94;5111005;28;20487;-64
2021/09/29 10:46:54;;;;;;;4.25;2.78;;;;;;;-144.51;100.00;69251.94;5114473;28;20031;-63
2021/09/29 11:32:41;;;;;;;5.53;3.45;;;;;;;-144.51;100.00;69251.94;5115524;28;20035;-62
2021/09/29 11:35:42;;;;;;;5.15;3.33;;;;;;;-144.51;100.00;69251.94;5111877;28;20031;-62
2021/09/29 12:12:37;;;;;;;5.88;2.63;;;;;;;-144.51;100.00;69251.94;5119498;28;20952;-62
2021/09/29 12:15:23;;;;;;;8.07;2.80;;;;;;;-144.51;100.00;69251.94;5114240;28;20039;-62
2021/09/29 12:18:13;;;;;;;3.58;2.75;;;;;;;-144.51;100.00;69251.94;5115625;28;20040;-62
2021/09/29 12:20:59;;;;;;;4.72;3.40;;;;;;;-144.51;100.00;69251.94;5118932;28;20031;-62
2021/09/29 12:23:50;;;;;;;5.18;2.88;;;;;;;-144.51;100.00;69251.94;5117365;28;20044;-62
2021/09/29 12:26:52;;;;;;;13.38;3.30;;;;;;;-144.51;100.00;69251.94;5114556;28;20031;-62
2021/09/29 12:30:03;;;;;;;4.32;3.22;;;;;;;-144.51;100.00;69251.94;5114153;27;20040;-62
2021/09/29 12:35:53;;;;;;;5.20;3.50;;;;;;;-144.51;100.00;69251.94;5113272;28;20039;-62
2021/09/29 12:38:38;;;;;;;3.58;2.75;;;;;;;-144.51;100.00;69251.94;5115478;28;20039;-62
2021/09/29 12:41:27;;;;;;;4.20;3.05;;;;;;;-144.51;100.00;69251.94;5121299;27;20042;-62
2021/09/29 12:44:16;;;;;;;7.72;3.25;;;;;;;-144.51;100.00;69251.94;5120094;27;20042;-62
2021/09/29 12:47:22;;;;;;;9.07;3.22;;;;;;;-144.51;100.00;69251.94;5119260;27;20035;-63
2021/09/29 12:50:15;;;;;;;11.48;4.30;;;;;;;-144.51;100.00;69251.94;5117860;27;20411;-62
2021/09/29 12:53:14;;;;;;;8.65;3.30;;;;;;;-144.51;100.00;69251.94;5125945;27;20039;-62
2021/09/29 12:58:46;;;;;;;8.57;3.78;;;;;;;-144.51;100.00;69251.94;5113954;27;20044;-62
2021/09/29 13:01:30;;;;;;;8.07;5.45;;;;;;;-144.51;100.00;69251.94;5118124;28;20036;-62
2021/09/29 13:04:15;;;;;;;;;;;;;;;-144.51;100.00;69251.94;5114704;28;20039;-62
2021/09/29 13:06:59;;;;;;;5.47;4.10;;;;;;;-144.51;100.00;69251.94;5114879;28;19911;-62
2021/09/29 13:09:44;;;;;;;;;;;;;;;-144.51;100.00;69251.94;5113594;28;20415;-62
2021/09/29 13:12:30;;;;;;;5.13;3.50;;;;;;;-144.51;100.00;69251.94;5122559;27;19912;-62
2021/09/29 13:15:15;;;;;;;6.85;4.43;;;;;;;-144.51;100.00;69251.94;5115744;28;20040;-62
2021/09/29 13:18:00;;;;;;;8.52;3.97;;;;;;;-144.51;100.00;69251.94;5117378;28;20039;-62
2021/09/29 13:20:50;;;;;;;9.93;4.32;;;;;;;-144.51;100.00;69251.94;5116806;27;20042;-62
2021/09/29 13:38:13;;;;;;;5.63;3.92;;;;;;;-144.51;100.00;69251.94;5111332;28;20040;-62
2021/09/29 13:40:58;;;;;;;9.48;5.07;;;;;;;-144.51;100.00;69251.94;5114724;27;20023;-62
2021/09/29 13:43:43;;;;;;;6.50;4.63;;;;;;;-144.51;100.00;69251.94;5115269;28;20086;-62
2021/09/29 13:46:28;;;;;;;9.85;4.22;;;;;;;-144.51;100.00;69251.94;5118611;28;20035;-62
2021/09/29 13:49:13;;;;;;;6.43;4.28;;;;;;;-144.51;100.00;69251.94;5114968;28;20044;-62
2021/09/29 13:51:59;;;;;;;5.07;3.90;;;;;;;-144.51;100.00;69251.94;5114077;28;20032;-62
2021/09/29 13:54:44;;;;;;;11.05;4.38;;;;;;;-144.51;100.00;69251.94;5112419;28;20051;-62
2021/09/29 13:57:38;;;;;;;22.00;5.00;;;;;;;-144.51;100.00;69251.94;5117072;28;20490;-61
2021/09/29 14:30:34;;;;;;;5.60;3.85;;;;;;;-144.51;100.00;69251.94;5114134;28;20040;-62
2021/09/29 14:33:23;;;;;;;6.07;4.70;;;;;;;-144.51;100.00;69251.94;5117425;27;20039;-62
2021/09/29 14:36:08;;;;;;;8.15;5.00;;;;;;;-144.51;100.00;69251.94;5131836;27;20028;-62
2021/09/29 14:38:53;;;;;;;9.80;4.63;;;;;;;-144.51;100.00;69251.94;5116998;28;20077;-62
2021/09/29 14:41:38;;;;;;;5.05;3.72;;;;;;;-144.51;100.00;69251.94;5112764;27;20391;-62
2021/09/29 14:44:23;;;;;;;12.85;4.30;;;;;;;-144.51;100.00;69251.94;5111513;28;20035;-62
2021/09/29 14:47:11;;;;;;;8.68;3.67;;;;;;;-144.51;100.00;69251.94;5111795;28;20388;-62
2021/09/29 14:49:55;;;;;;;6.60;3.92;;;;;;;-144.51;100.00;69251.94;5113783;28;20035;-62
2021/09/29 14:52:40;;;;;;;6.40;4.20;;;;;;;-144.51;100.00;69251.94;5112236;28;20445;-62
2021/09/29 14:55:29;;;;;;;7.93;4.75;;;;;;;-144.51;100.00;69251.94;5116038;28;20031;-62
2021/09/29 14:58:14;;;;;;;6.75;4.65;;;;;;;-144.51;100.00;69251.94;5114223;28;20036;-65
2021/09/29 15:00:59;;;;;;;6.88;4.57;;;;;;;-144.51;100.00;69251.94;5117890;28;20031;-62
2021/09/29 15:03:47;;;;;;;10.25;5.63;;;;;;;-144.51;100.00;69251.94;5115130;28;20043;-62
2021/09/29 15:06:31;;;;;;;7.80;5.63;;;;;;;-144.51;100.00;69251.94;5113071;28;20411;-62
2021/09/29 15:09:17;;;;;;;10.52;5.25;;;;;;;-144.51;100.00;69251.94;5110416;28;20044;-62
2021/09/29 15:12:03;;;;;;;7.85;4.88;;;;;;;-144.51;100.00;69251.94;5115052;28;20039;-62
2021/09/29 15:17:42;;;;;;;7.78;4.47;;;;;;;-144.51;100.00;69251.94;5110016;28;20070;-62
2021/09/29 15:20:47;;;;;;;7.70;4.60;;;;;;;-144.51;100.00;69251.94;5112804;28;20628;-63
2021/09/29 15:46:03;;;;;;;8.60;5.15;;;;;;;-144.51;100.00;69251.94;5116667;27;20043;-65
2021/09/29 15:48:00;;;;;;;11.43;5.18;;;;;;;-144.51;100.00;69251.94;5128590;27;20526;-65
2021/09/29 15:50:50;;;;;;;63.55;7.13;;;;;;;-144.51;100.00;69251.94;5119994;27;20035;-65
2021/09/29 15:56:52;;;;;;;8.20;5.47;;;;;;;-144.51;100.00;69251.94;5113188;28;20052;-65
2021/09/29 16:31:48;;;;;;;8.98;4.95;;;;;;;-144.51;100.00;69251.94;5106504;28;20048;-64
2021/09/29 16:34:34;;;;;;;12.07;5.88;;;;;;;-144.51;100.00;69251.94;5116337;28;20039;-64
2021/09/29 16:37:19;;;;;;;10.45;5.63;;;;;;;-144.51;100.00;69251.94;5117752;27;20040;-65
2021/09/29 16:40:05;;;;;;;7.40;4.85;;;;;;;-144.51;100.00;69251.94;5114423;28;20043;-65
2021/09/29 16:42:51;;;;;;;6.90;4.40;;;;;;;-144.51;100.00;69251.94;5118613;28;20040;-65
2021/09/29 16:45:37;;;;;;;6.22;4.43;;;;;;;-144.51;100.00;69251.94;5115105;28;20031;-64
2021/09/29 16:48:27;;;;;;;17.38;5.05;;;;;;;-144.51;100.00;69251.94;5109901;28;20418;-64